createdAt,value
2023-04-16T00:01:02.418Z,4.90
2023-04-16T00:03:30.621Z,4.60
2023-04-16T00:05:59.339Z,5.30
2023-04-16T00:08:27.210Z,7.78
2023-04-16T00:10:57.386Z,6.53
2023-04-16T00:13:26.158Z,6.85
2023-04-16T00:15:53.937Z,6.85
2023-04-16T00:18:21.841Z,6.88
2023-04-16T00:20:50.936Z,7.38
2023-04-16T00:23:18.800Z,6.97
2023-04-16T00:25:46.610Z,8.23
2023-04-16T00:28:15.807Z,8.23
2023-04-16T00:30:43.713Z,9.25
2023-04-16T00:33:13.452Z,8.93
2023-04-16T00:35:41.299Z,9.20
2023-04-16T00:38:09.794Z,7.63
2023-04-16T00:40:37.672Z,7.75
2023-04-16T00:43:05.828Z,7.38
2023-04-16T00:45:35.262Z,7.50
2023-04-16T00:48:03.544Z,7.65
2023-04-16T00:50:31.432Z,7.93
2023-04-16T00:52:59.455Z,7.55
2023-04-16T00:55:27.401Z,9.55
2023-04-16T00:57:55.388Z,8.35
2023-04-16T01:00:23.581Z,9.80
2023-04-16T01:02:53.005Z,10.20
2023-04-16T01:05:21.273Z,10.05
2023-04-16T01:07:49.145Z,9.20
2023-04-16T01:10:16.985Z,8.98
2023-04-16T01:12:44.815Z,9.32
2023-04-16T01:15:12.893Z,10.15
2023-04-16T01:17:40.763Z,10.00
2023-04-16T01:20:10.507Z,10.73
2023-04-16T01:22:39.709Z,11.35
2023-04-16T01:25:07.846Z,11.23
2023-04-16T01:27:37.564Z,12.10
2023-04-16T01:30:06.240Z,10.32
2023-04-16T01:32:44.795Z,10.40
2023-04-16T01:35:12.649Z,10.38
2023-04-16T01:37:41.946Z,11.30
2023-04-16T01:40:11.694Z,10.13
2023-04-16T01:42:39.525Z,10.07
2023-04-16T01:45:08.056Z,9.63
2023-04-16T01:47:36.001Z,9.75
2023-04-16T01:50:06.532Z,9.45
2023-04-16T01:52:34.374Z,10.45
2023-04-16T01:55:03.851Z,11.05
2023-04-16T01:57:32.482Z,11.23
2023-04-16T02:00:00.378Z,11.25
2023-04-16T02:02:29.400Z,11.63
2023-04-16T02:04:57.871Z,12.20
2023-04-16T02:07:25.784Z,11.40
2023-04-16T02:09:53.600Z,11.60
2023-04-16T02:12:23.021Z,12.23
2023-04-16T02:14:50.941Z,12.75
2023-04-16T02:17:20.195Z,12.50
2023-04-16T02:19:51.447Z,13.00
2023-04-16T02:22:19.776Z,13.32
2023-04-16T02:24:47.999Z,13.48
2023-04-16T02:27:16.079Z,13.02
2023-04-16T02:29:45.514Z,13.50
2023-04-16T02:32:16.961Z,15.38
2023-04-16T02:34:46.478Z,14.23
2023-04-16T02:37:16.310Z,14.40
2023-04-16T02:39:44.570Z,13.45
2023-04-16T02:42:13.431Z,14.43
2023-04-16T02:44:41.513Z,14.25
2023-04-16T02:47:11.509Z,15.63
2023-04-16T02:49:39.249Z,15.00
2023-04-16T02:52:07.575Z,15.30
2023-04-16T02:54:35.413Z,15.77
2023-04-16T02:57:03.462Z,16.02
2023-04-16T02:59:32.171Z,17.63
2023-04-16T03:02:00.067Z,18.25
2023-04-16T03:04:29.333Z,18.33
2023-04-16T03:06:57.140Z,17.42
2023-04-16T03:09:25.189Z,15.85
2023-04-16T03:11:53.210Z,16.00
2023-04-16T03:14:21.203Z,17.95
2023-04-16T03:16:49.192Z,13.95
2023-04-16T03:19:17.000Z,14.80
2023-04-16T03:21:46.184Z,14.77
2023-04-16T03:24:14.107Z,13.35
2023-04-16T03:26:41.918Z,13.45
2023-04-16T03:29:11.735Z,12.52
2023-04-16T03:31:39.771Z,13.15
2023-04-16T03:34:07.601Z,12.50
2023-04-16T03:36:36.020Z,12.35
2023-04-16T03:39:05.511Z,12.35
2023-04-16T03:41:33.515Z,11.43
2023-04-16T03:44:01.729Z,11.38
2023-04-16T03:46:29.669Z,11.85
2023-04-16T03:48:57.623Z,11.60
2023-04-16T03:51:26.500Z,11.68
2023-04-16T03:53:54.363Z,10.80
2023-04-16T03:56:23.904Z,9.82
2023-04-16T03:58:53.356Z,10.73
2023-04-16T04:01:21.286Z,9.93
2023-04-16T04:03:49.355Z,10.10
2023-04-16T04:06:17.440Z,11.18
2023-04-16T04:08:45.402Z,10.68
2023-04-16T04:11:14.722Z,11.05
2023-04-16T04:13:45.783Z,11.48
2023-04-16T04:16:14.158Z,11.32
2023-04-16T04:18:44.239Z,11.68
2023-04-16T04:21:12.405Z,11.55
2023-04-16T04:23:41.628Z,11.85
2023-04-16T04:26:09.763Z,11.95
2023-04-16T04:28:37.777Z,12.00
2023-04-16T04:31:07.503Z,12.35
2023-04-16T04:33:35.475Z,12.30
2023-04-16T04:36:03.406Z,12.02
2023-04-16T04:38:31.490Z,12.60
2023-04-16T04:41:00.061Z,12.38
2023-04-16T04:43:30.866Z,14.38
2023-04-16T04:45:58.684Z,16.73
2023-04-16T04:48:29.997Z,14.43
2023-04-16T04:50:57.935Z,13.05
2023-04-16T04:53:25.701Z,11.32
2023-04-16T04:55:55.644Z,11.93
2023-04-16T04:58:26.500Z,11.02
2023-04-16T05:00:54.316Z,11.50
2023-04-16T05:03:22.624Z,14.80
2023-04-16T05:05:51.889Z,10.30
2023-04-16T05:08:19.782Z,10.02
2023-04-16T05:10:47.562Z,9.70
2023-04-16T05:13:15.266Z,9.30
2023-04-16T05:15:43.195Z,9.45
2023-04-16T05:18:11.039Z,9.32
2023-04-16T05:20:38.901Z,8.27
2023-04-16T05:23:08.043Z,8.68
2023-04-16T05:25:37.491Z,8.52
2023-04-16T05:28:05.383Z,7.93
2023-04-16T05:30:33.190Z,7.35
2023-04-16T05:33:01.405Z,8.20
2023-04-16T05:35:29.403Z,7.20
2023-04-16T05:37:57.381Z,7.65
2023-04-16T05:40:27.048Z,7.72
2023-04-16T05:42:55.416Z,6.63
2023-04-16T05:45:24.061Z,6.38
2023-04-16T05:47:54.601Z,7.72
2023-04-16T05:50:24.419Z,5.97
2023-04-16T05:52:52.311Z,5.88
2023-04-16T05:55:20.133Z,5.50
2023-04-16T05:57:49.243Z,5.30
2023-04-16T06:00:17.580Z,4.10
2023-04-16T06:02:45.500Z,4.43
2023-04-16T06:05:13.490Z,4.13
2023-04-16T06:07:41.281Z,16.65
2023-04-16T06:10:09.298Z,3.58
2023-04-16T06:12:37.077Z,3.35
2023-04-16T06:15:06.949Z,2.92
2023-04-16T06:17:35.120Z,2.67
2023-04-16T06:20:03.299Z,1.95
2023-04-16T06:22:31.616Z,1.75
2023-04-16T06:24:59.982Z,1.58
2023-04-16T06:27:28.183Z,1.58
2023-04-16T06:29:56.369Z,1.40
2023-04-16T06:32:25.610Z,1.17
2023-04-16T06:34:53.490Z,2.20
2023-04-16T06:37:21.873Z,1.65
2023-04-16T06:39:49.846Z,1.08
2023-04-16T06:42:18.577Z,1.65
2023-04-16T06:44:46.457Z,1.25
2023-04-16T06:47:14.471Z,1.20
2023-04-16T06:49:43.866Z,1.27
2023-04-16T06:52:11.760Z,1.52
2023-04-16T06:54:39.530Z,1.08
2023-04-16T06:57:07.536Z,0.93
2023-04-16T06:59:35.412Z,1.23
2023-04-16T07:02:03.315Z,1.20
2023-04-16T07:04:31.499Z,1.58
2023-04-16T07:07:00.628Z,1.88
2023-04-16T07:09:28.508Z,1.38
2023-04-16T07:11:56.812Z,1.40
2023-04-16T07:14:24.631Z,1.23
2023-04-16T07:16:52.484Z,1.25
2023-04-16T07:19:20.453Z,1.20
2023-04-16T07:21:48.316Z,1.13
2023-04-16T07:24:17.490Z,1.20
2023-04-16T07:26:45.241Z,1.67
2023-04-16T07:29:13.529Z,1.40
2023-04-16T07:31:41.484Z,1.45
2023-04-16T07:34:09.489Z,1.25
2023-04-16T07:36:37.312Z,1.30
2023-04-16T07:39:05.569Z,1.33
2023-04-16T07:41:34.968Z,1.60
2023-04-16T07:44:02.758Z,1.27
2023-04-16T07:46:43.220Z,1.52
2023-04-16T07:49:14.585Z,1.10
2023-04-16T07:51:42.832Z,1.50
2023-04-16T07:54:11.578Z,1.60
2023-04-16T07:56:40.938Z,2.00
2023-04-16T08:01:42.980Z,1.30
2023-04-16T08:04:11.049Z,1.10
2023-04-16T08:06:38.896Z,1.10
2023-04-16T08:09:06.749Z,1.00
2023-04-16T08:11:34.516Z,1.88
2023-04-16T08:14:03.855Z,0.80
2023-04-16T08:16:31.651Z,1.30
2023-04-16T08:19:01.207Z,1.20
2023-04-16T08:21:29.345Z,1.58
2023-04-16T08:23:57.198Z,1.65
2023-04-16T08:26:25.068Z,1.75
2023-04-16T08:28:52.945Z,1.70
2023-04-16T08:31:22.414Z,1.48
2023-04-16T08:33:50.591Z,1.38
2023-04-16T08:36:18.426Z,1.55
2023-04-16T08:38:46.381Z,1.60
2023-04-16T08:41:15.003Z,1.80
2023-04-16T08:43:45.456Z,1.27
2023-04-16T08:46:13.550Z,1.50
2023-04-16T08:48:43.258Z,1.20
2023-04-16T08:51:12.202Z,1.00
2023-04-16T08:53:44.450Z,0.80
2023-04-16T08:56:12.855Z,1.10
2023-04-16T08:58:40.741Z,1.30
2023-04-16T09:01:10.401Z,1.50
2023-04-16T09:03:38.381Z,2.20
2023-04-16T09:06:08.934Z,4.50
2023-04-16T09:08:38.162Z,5.00
2023-04-16T09:11:06.048Z,11.45
2023-04-16T09:13:34.280Z,15.75
2023-04-16T09:16:02.230Z,6.32
2023-04-16T09:18:30.087Z,4.45
2023-04-16T09:20:58.109Z,4.93
2023-04-16T09:23:27.445Z,2.50
2023-04-16T09:25:55.645Z,2.40
2023-04-16T09:28:42.879Z,2.47
2023-04-16T09:31:11.502Z,2.33
2023-04-16T09:33:41.155Z,2.22
2023-04-16T09:36:09.215Z,1.77
2023-04-16T09:38:48.828Z,2.30
2023-04-16T09:41:17.443Z,3.17
2023-04-16T09:43:56.078Z,2.50
2023-04-16T09:46:24.141Z,1.85
2023-04-16T09:48:52.022Z,1.70
2023-04-16T09:51:19.828Z,2.55
2023-04-16T09:53:52.598Z,2.45
2023-04-16T09:56:24.346Z,1.58
2023-04-16T09:58:52.179Z,2.40
2023-04-16T10:01:21.037Z,1.48
2023-04-16T10:03:50.445Z,1.35
2023-04-16T10:06:19.592Z,2.05
2023-04-16T10:08:50.349Z,1.77
2023-04-16T10:11:18.719Z,1.45
2023-04-16T10:13:46.753Z,2.15
2023-04-16T10:16:14.578Z,1.60
2023-04-16T10:18:43.284Z,2.00
2023-04-16T10:21:11.952Z,1.27
2023-04-16T10:23:40.031Z,1.13
2023-04-16T10:26:10.147Z,1.30
2023-04-16T10:28:38.755Z,1.83
2023-04-16T10:31:07.242Z,1.70
2023-04-16T10:33:36.455Z,1.98
2023-04-16T10:36:11.362Z,1.50
2023-04-16T10:38:40.162Z,1.48
2023-04-16T10:41:09.767Z,1.50
2023-04-16T10:43:41.587Z,1.50
2023-04-16T10:46:20.275Z,2.88
2023-04-16T10:48:50.170Z,2.05
2023-04-16T10:51:28.069Z,1.92
2023-04-16T10:53:56.712Z,1.90
2023-04-16T10:56:26.838Z,1.85
2023-04-16T10:58:56.449Z,1.90
2023-04-16T11:01:31.455Z,2.38
2023-04-16T11:03:59.992Z,2.00
2023-04-16T11:06:28.399Z,2.83
2023-04-16T11:08:56.373Z,3.30
2023-04-16T11:11:24.483Z,4.88
2023-04-16T11:13:56.711Z,6.05
2023-04-16T11:16:26.212Z,2.67
2023-04-16T11:18:56.341Z,5.15
2023-04-16T11:21:25.259Z,2.58
2023-04-16T11:23:53.633Z,3.15
2023-04-16T11:26:25.330Z,2.00
2023-04-16T11:28:53.437Z,1.13
2023-04-16T11:31:23.395Z,2.05
2023-04-16T11:33:51.400Z,3.28
2023-04-16T11:36:19.442Z,1.02
2023-04-16T11:38:48.073Z,1.10
2023-04-16T11:41:20.769Z,1.30
2023-04-16T11:43:48.589Z,0.88
2023-04-16T11:46:26.884Z,1.00
2023-04-16T11:48:56.990Z,1.80
2023-04-16T11:51:24.932Z,1.90
2023-04-16T11:53:53.536Z,1.75
2023-04-16T11:56:28.514Z,1.35
2023-04-16T11:59:09.527Z,1.25
2023-04-16T12:01:38.211Z,0.90
2023-04-16T12:04:08.078Z,0.98
2023-04-16T12:06:36.250Z,0.70
2023-04-16T12:09:19.017Z,0.50
2023-04-16T12:11:46.800Z,1.80
2023-04-16T12:14:14.679Z,0.65
2023-04-16T12:16:42.471Z,3.88
2023-04-16T12:19:12.760Z,2.65
2023-04-16T12:21:41.572Z,1.65
2023-04-16T12:24:10.484Z,1.45
2023-04-16T12:26:41.753Z,1.13
2023-04-16T12:29:16.476Z,1.08
2023-04-16T12:31:44.402Z,0.77
2023-04-16T12:34:15.173Z,3.83
2023-04-16T12:36:43.300Z,2.13
2023-04-16T12:39:11.979Z,2.10
2023-04-16T12:41:40.878Z,1.27
2023-04-16T12:44:12.029Z,2.55
2023-04-16T12:46:40.694Z,2.90
2023-04-16T12:49:09.082Z,3.88
2023-04-16T12:51:39.501Z,2.97
2023-04-16T12:54:08.421Z,2.05
2023-04-16T12:56:36.992Z,1.80
2023-04-16T12:59:05.032Z,1.83
2023-04-16T13:01:36.141Z,1.95
2023-04-16T13:04:04.322Z,4.00
2023-04-16T13:06:33.805Z,3.38
2023-04-16T13:09:02.945Z,1.73
2023-04-16T13:11:31.269Z,2.97
2023-04-16T13:13:59.172Z,2.15
2023-04-16T13:16:27.281Z,1.13
2023-04-16T13:18:55.288Z,1.20
2023-04-16T13:21:23.785Z,1.30
2023-04-16T13:23:51.928Z,1.77
2023-04-16T13:26:21.088Z,2.15
2023-04-16T13:28:48.897Z,5.65
2023-04-16T13:31:19.996Z,24.83
2023-04-16T13:33:47.874Z,4.90
2023-04-16T13:36:15.776Z,2.70
2023-04-16T13:38:43.887Z,1.30
2023-04-16T13:41:11.683Z,3.53
2023-04-16T13:43:41.019Z,2.60
2023-04-16T13:46:09.047Z,2.25
2023-04-16T13:48:36.944Z,1.85
2023-04-16T13:51:04.765Z,2.20
2023-04-16T13:53:32.581Z,3.40
2023-04-16T13:56:00.437Z,3.05
2023-04-16T13:58:28.272Z,1.98
2023-04-16T14:00:57.467Z,5.97
2023-04-16T14:03:26.358Z,3.13
2023-04-16T14:05:54.221Z,4.85
2023-04-16T14:08:22.354Z,3.20
2023-04-16T14:10:50.273Z,2.53
2023-04-16T14:13:18.666Z,5.50
2023-04-16T14:15:46.634Z,2.25
2023-04-16T14:18:16.095Z,2.55
2023-04-16T14:20:44.551Z,4.68
2023-04-16T14:23:12.946Z,2.40
2023-04-16T14:25:40.855Z,5.00
2023-04-16T14:28:09.660Z,5.38
2023-04-16T14:30:37.574Z,2.90
2023-04-16T14:33:06.599Z,2.88
2023-04-16T14:35:36.074Z,7.82
2023-04-16T14:38:04.001Z,1.80
2023-04-16T14:40:31.789Z,2.33
2023-04-16T14:42:59.637Z,4.25
2023-04-16T14:45:30.036Z,4.40
2023-04-16T14:47:58.402Z,4.65
2023-04-16T14:50:26.325Z,2.63
2023-04-16T14:52:56.594Z,2.75
2023-04-16T14:55:24.425Z,3.15
2023-04-16T14:57:52.427Z,3.55
2023-04-16T15:00:20.574Z,6.20
2023-04-16T15:02:48.638Z,18.25
2023-04-16T15:05:17.189Z,3.85
2023-04-16T15:07:45.066Z,5.78
2023-04-16T15:10:14.542Z,27.13
2023-04-16T15:12:42.326Z,4.30
2023-04-16T15:15:10.975Z,4.97
2023-04-16T15:17:39.558Z,4.57
2023-04-16T15:20:09.384Z,4.60
2023-04-16T15:22:37.149Z,5.28
2023-04-16T15:25:06.378Z,5.63
2023-04-16T15:27:36.499Z,5.85
2023-04-16T15:30:04.494Z,4.30
2023-04-16T15:32:32.778Z,4.95
2023-04-16T15:35:01.012Z,5.78
2023-04-16T15:37:29.326Z,4.57
2023-04-16T15:39:57.092Z,4.70
2023-04-16T15:42:25.213Z,4.57
2023-04-16T15:44:54.488Z,5.20
2023-04-16T15:47:22.288Z,3.83
2023-04-16T15:49:50.174Z,3.72
2023-04-16T15:52:19.946Z,3.97
2023-04-16T15:54:47.747Z,3.65
2023-04-16T15:57:15.715Z,2.88
2023-04-16T15:59:50.133Z,4.03
2023-04-16T16:02:29.763Z,2.78
2023-04-16T16:04:57.905Z,2.78
2023-04-16T16:07:26.090Z,3.60
2023-04-16T16:09:53.914Z,3.70
2023-04-16T16:12:21.724Z,3.15
2023-04-16T16:14:49.520Z,3.40
2023-04-16T16:17:17.789Z,4.82
2023-04-16T16:19:47.181Z,10.95
2023-04-16T16:22:16.023Z,12.65
2023-04-16T16:24:44.099Z,5.18
2023-04-16T16:27:12.005Z,4.65
2023-04-16T16:29:39.862Z,4.63
2023-04-16T16:32:07.728Z,5.93
2023-04-16T16:34:35.627Z,7.00
2023-04-16T16:37:04.733Z,9.15
2023-04-16T16:39:32.526Z,6.78
2023-04-16T16:42:00.932Z,7.63
2023-04-16T16:44:28.787Z,9.80
2023-04-16T16:46:56.702Z,7.03
2023-04-16T16:49:24.915Z,9.13
2023-04-16T16:51:52.809Z,12.43
2023-04-16T16:54:22.207Z,12.63
2023-04-16T16:56:50.263Z,11.35
2023-04-16T16:59:18.100Z,12.85
2023-04-16T17:01:46.160Z,14.95
2023-04-16T17:04:14.060Z,25.23
2023-04-16T17:06:42.079Z,20.50
2023-04-16T17:09:11.372Z,27.45
2023-04-16T17:11:41.184Z,35.08
2023-04-16T17:14:08.986Z,32.67
2023-04-16T17:16:37.032Z,14.43
2023-04-16T17:19:05.050Z,21.52
2023-04-16T17:21:33.916Z,10.93
2023-04-16T17:24:01.830Z,7.47
2023-04-16T17:26:30.666Z,8.55
2023-04-16T17:29:01.204Z,11.00
2023-04-16T17:31:29.719Z,6.50
2023-04-16T17:33:57.658Z,7.07
2023-04-16T17:36:26.654Z,7.53
2023-04-16T17:38:54.440Z,6.75
2023-04-16T17:41:22.259Z,6.07
2023-04-16T17:43:50.392Z,6.28
2023-04-16T17:46:19.583Z,9.48
2023-04-16T17:48:48.939Z,10.35
2023-04-16T17:51:17.176Z,7.57
2023-04-16T17:53:44.984Z,8.00
2023-04-16T17:56:13.780Z,6.78
2023-04-16T17:58:41.656Z,6.95
2023-04-16T18:01:09.745Z,9.52
2023-04-16T18:03:40.493Z,8.88
2023-04-16T18:06:08.861Z,7.95
2023-04-16T18:08:37.010Z,8.10
2023-04-16T18:11:07.218Z,7.50
2023-04-16T18:13:35.460Z,9.25
2023-04-16T18:16:03.363Z,7.00
2023-04-16T18:18:31.247Z,10.55
2023-04-16T18:21:00.534Z,7.60
2023-04-16T18:23:29.151Z,12.60
2023-04-16T18:25:57.340Z,23.17
2023-04-16T18:28:25.428Z,22.85
2023-04-16T18:30:53.442Z,7.65
2023-04-16T18:33:44.261Z,7.75
2023-04-16T18:36:11.793Z,7.93
2023-04-16T18:38:49.415Z,7.00
2023-04-16T18:41:25.758Z,7.90
2023-04-16T18:43:53.602Z,11.70
2023-04-16T18:46:21.849Z,7.43
2023-04-16T18:48:49.573Z,7.82
2023-04-16T18:51:18.749Z,9.73
2023-04-16T18:53:46.521Z,12.45
2023-04-16T18:56:14.789Z,11.63
2023-04-16T18:58:43.257Z,12.40
2023-04-16T19:01:13.542Z,21.40
2023-04-16T19:03:41.894Z,18.75
2023-04-16T19:06:09.746Z,22.83
2023-04-16T19:08:39.005Z,24.05
2023-04-16T19:11:06.825Z,11.23
2023-04-16T19:13:34.636Z,24.08
2023-04-16T19:16:03.011Z,12.23
2023-04-16T19:18:31.246Z,31.27
2023-04-16T19:20:59.828Z,16.85
2023-04-16T19:23:28.002Z,21.13
2023-04-16T19:25:57.825Z,20.38
2023-04-16T19:28:27.402Z,28.98
2023-04-16T19:30:55.208Z,18.13
2023-04-16T19:33:23.047Z,29.63
2023-04-16T19:35:50.932Z,15.27
2023-04-16T19:38:18.908Z,25.30
2023-04-16T19:40:47.123Z,15.93
2023-04-16T19:43:16.321Z,34.20
2023-04-16T19:45:44.534Z,16.65
2023-04-16T19:48:13.681Z,22.30
2023-04-16T19:50:41.556Z,15.15
2023-04-16T19:53:09.810Z,23.42
2023-04-16T19:55:38.151Z,29.55
2023-04-16T19:58:06.847Z,14.57
2023-04-16T20:00:38.309Z,38.58
2023-04-16T20:03:06.212Z,18.75
2023-04-16T20:05:34.537Z,24.08
2023-04-16T20:08:02.414Z,46.83
2023-04-16T20:10:31.526Z,30.88
2023-04-16T20:12:59.984Z,21.90
2023-04-16T20:15:27.952Z,14.88
2023-04-16T20:17:57.275Z,30.70
2023-04-16T20:20:25.103Z,26.50
2023-04-16T20:22:52.986Z,24.83
2023-04-16T20:25:21.650Z,31.05
2023-04-16T20:27:49.894Z,20.50
2023-04-16T20:30:17.808Z,27.92
2023-04-16T20:32:45.762Z,18.25
2023-04-16T20:35:15.536Z,24.27
2023-04-16T20:37:43.450Z,37.63
2023-04-16T20:40:13.945Z,34.10
2023-04-16T20:42:46.063Z,24.52
2023-04-16T20:45:14.364Z,22.52
2023-04-16T20:47:43.461Z,25.17
2023-04-16T20:50:12.196Z,29.25
2023-04-16T20:52:42.393Z,20.20
2023-04-16T20:55:10.527Z,22.58
2023-04-16T20:57:38.331Z,18.30
2023-04-16T21:00:09.516Z,19.98
2023-04-16T21:02:37.524Z,22.52
2023-04-16T21:05:09.245Z,19.45
2023-04-16T21:07:37.505Z,23.50
2023-04-16T21:10:07.564Z,17.27
2023-04-16T21:12:35.773Z,24.60
2023-04-16T21:15:03.758Z,24.55
2023-04-16T21:17:31.782Z,26.73
2023-04-16T21:19:59.596Z,24.88
2023-04-16T21:22:27.841Z,21.48
2023-04-16T21:24:55.676Z,30.17
2023-04-16T21:27:24.816Z,26.42
2023-04-16T21:29:52.782Z,25.85
2023-04-16T21:32:20.648Z,29.48
2023-04-16T21:34:48.487Z,24.67
2023-04-16T21:37:16.608Z,24.55
2023-04-16T21:39:44.459Z,22.60
2023-04-16T21:42:12.635Z,24.00
2023-04-16T21:44:42.122Z,23.77
2023-04-16T21:47:09.978Z,22.45
2023-04-16T21:49:37.810Z,21.88
2023-04-16T21:52:05.810Z,21.05
2023-04-16T21:54:33.677Z,22.30
2023-04-16T21:57:01.778Z,23.23
2023-04-16T21:59:30.205Z,25.98
2023-04-16T22:01:59.495Z,24.75
2023-04-16T22:04:37.962Z,27.35
2023-04-16T22:07:08.724Z,17.40
2023-04-16T22:09:36.872Z,17.25
2023-04-16T22:12:06.857Z,18.30
2023-04-16T22:14:35.676Z,18.92
2023-04-16T22:17:05.420Z,19.20
2023-04-16T22:19:34.856Z,16.45
2023-04-16T22:22:02.702Z,15.68
2023-04-16T22:24:30.468Z,18.73
2023-04-16T22:26:58.247Z,16.67
2023-04-16T22:29:26.357Z,15.00
2023-04-16T22:31:55.101Z,15.63
2023-04-16T22:34:24.463Z,16.67
2023-04-16T22:36:52.339Z,16.52
2023-04-16T22:39:20.110Z,17.30
2023-04-16T22:41:47.911Z,17.15
2023-04-16T22:44:16.344Z,15.23
2023-04-16T22:46:45.100Z,16.45
2023-04-16T22:49:13.414Z,16.40
2023-04-16T22:51:42.725Z,15.60
2023-04-16T22:54:13.265Z,16.52
2023-04-16T22:56:41.935Z,15.88
2023-04-16T22:59:09.991Z,16.90
2023-04-16T23:01:38.654Z,16.25
2023-04-16T23:04:06.791Z,15.43
2023-04-16T23:06:34.648Z,15.95
2023-04-16T23:09:05.105Z,15.52
2023-04-16T23:11:32.938Z,17.08
2023-04-16T23:14:00.735Z,17.52
2023-04-16T23:16:28.757Z,17.40
2023-04-16T23:18:56.781Z,17.70
2023-04-16T23:21:24.675Z,18.05
2023-04-16T23:23:52.672Z,18.95
2023-04-16T23:26:21.897Z,18.73
2023-04-16T23:28:49.646Z,18.02
2023-04-16T23:31:17.468Z,17.98
2023-04-16T23:33:45.269Z,18.63
2023-04-16T23:36:13.080Z,18.67
2023-04-16T23:38:40.869Z,19.80
2023-04-16T23:41:08.622Z,20.27
2023-04-16T23:43:40.098Z,19.25
2023-04-16T23:46:08.154Z,20.23
2023-04-16T23:48:36.005Z,19.50
2023-04-16T23:51:03.814Z,20.48
2023-04-16T23:53:31.656Z,21.85
2023-04-16T23:55:59.465Z,24.95
2023-04-16T23:58:27.254Z,23.17
